Aeroporto :
LOGIN :

Iscrizione | Disclaimer

   EN    FR    IT 

 










Sommario :    VFR   VFR Marginale   IFR   IFR Intensivo   IFR Molto Intensivo
Visibilità : 
Base nubi : 
>= 8 km
>= 3000ft
5 / 8 km
1000 / 3000 ft
1500m / 5 km
500 / 1000 ft
800 / 1500m
200 / 500 ft
< 800m
< 200 ft
Simboli :   Temporali  Nebbia  Neve Forte  Precipitazioni Forti  Vento > 20 kt
SIGMETs :   Varie  Temporali  Ghiacco  Turbolenza  Onda orograficha  Ceneri Vulcaniche






- Altitudine del aeroporto : 3 ft
- Codice IATA : LWR


EHLW - Leuuwarden Air Base

ULTIMO METAR :
  • 220525Z AUTO 36004KT 320V040 9999 FEW024 SCT028 BKN032 15/10 Q1017 BLU

METARs OBSOLETI :
  • 220455Z AUTO 34004KT 300V360 9999 FEW290 13/09 Q1016 BLU
  • 220425Z AUTO 35003KT 9999 NCD 11/08 Q1016 BLU
  • 220355Z AUTO 35005KT 310V020 9999 NCD 10/07 Q1016 BLU
  • 220325Z AUTO 35006KT 9999 NCD 10/07 Q1016 BLU
  • 220255Z AUTO 35006KT 9999 NCD 10/08 Q1016 BLU

TAF TAF EHLW
Valido dal 22 a 05 ore il 22 a 17 ore UTC


220444Z 2205/2217 36007KT 9999 FEW025
BECMG 2206/2208 36010G20KT



MetMap, La meteo Aeronautica in un colpo d'occhio ! - Copyright ORBIFLY Dicembre 2007 - Disclaimer

ORBIFLY MET'MAP TEAM :

Programmazione e sviluppo : Alexandra Zaïnal
Concezione : Baudouin d'Aumeries
Aiuto per la programmazione : Marc-Olivier Méhu
Supporto tecnico e logistico : Manuel Goepfert
Aiuto per la traduzione : Arnaldo La Scala

Contatto : metmap@orbifly.com




FONTI E CREDITI :

   NOAA